createdAt,value
2023-04-08T00:01:22.714Z,37.15
2023-04-08T00:03:49.232Z,32.70
2023-04-08T00:06:16.221Z,34.40
2023-04-08T00:08:42.529Z,31.43
2023-04-08T00:11:08.846Z,34.20
2023-04-08T00:13:35.306Z,37.57
2023-04-08T00:16:01.832Z,36.23
2023-04-08T00:18:28.231Z,28.52
2023-04-08T00:20:54.726Z,41.30
2023-04-08T00:23:21.474Z,42.72
2023-04-08T00:25:47.973Z,33.28
2023-04-08T00:28:14.271Z,33.60
2023-04-08T00:30:40.652Z,36.08
2023-04-08T00:33:06.990Z,31.25
2023-04-08T00:35:33.357Z,32.00
2023-04-08T00:37:59.666Z,35.72
2023-04-08T00:40:25.971Z,28.15
2023-04-08T00:42:52.265Z,37.38
2023-04-08T00:45:18.554Z,33.13
2023-04-08T00:47:44.962Z,34.90
2023-04-08T00:50:11.394Z,31.27
2023-04-08T00:52:37.767Z,31.07
2023-04-08T00:55:04.299Z,35.00
2023-04-08T00:57:30.640Z,34.15
2023-04-08T00:59:56.991Z,37.70
2023-04-08T01:02:29.948Z,42.00
2023-04-08T01:05:02.003Z,33.40
2023-04-08T01:07:31.123Z,29.92
2023-04-08T01:10:01.999Z,39.33
2023-04-08T01:12:32.970Z,28.50
2023-04-08T01:15:01.708Z,36.85
2023-04-08T01:17:28.991Z,27.17
2023-04-08T01:19:57.094Z,34.55
2023-04-08T01:22:29.785Z,32.13
2023-04-08T01:25:01.215Z,37.85
2023-04-08T01:27:28.546Z,27.20
2023-04-08T01:29:55.791Z,32.95
2023-04-08T01:32:22.414Z,30.85
2023-04-08T01:34:49.068Z,42.40
2023-04-08T01:37:15.869Z,36.10
2023-04-08T01:39:42.691Z,43.20
2023-04-08T01:42:09.616Z,34.88
2023-04-08T01:44:36.369Z,38.55
2023-04-08T01:47:03.490Z,33.92
2023-04-08T01:49:30.649Z,35.08
2023-04-08T01:51:57.614Z,42.10
2023-04-08T01:54:23.941Z,45.72
2023-04-08T01:56:51.204Z,43.60
2023-04-08T01:59:19.256Z,39.95
2023-04-08T02:01:46.915Z,46.33
2023-04-08T02:04:13.528Z,38.28
2023-04-08T02:06:40.296Z,44.97
2023-04-08T02:09:07.756Z,42.00
2023-04-08T02:11:34.067Z,47.65
2023-04-08T02:14:00.370Z,42.40
2023-04-08T02:16:47.245Z,43.50
2023-04-08T02:19:29.204Z,46.95
2023-04-08T02:21:57.514Z,47.03
2023-04-08T02:24:24.449Z,46.00
2023-04-08T02:26:52.061Z,41.72
2023-04-08T02:29:19.045Z,48.22
2023-04-08T02:31:48.567Z,39.70
2023-04-08T02:34:16.227Z,41.72
2023-04-08T02:36:45.988Z,43.15
2023-04-08T02:39:12.800Z,36.17
2023-04-08T02:41:39.205Z,46.90
2023-04-08T02:44:05.721Z,48.50
2023-04-08T02:46:32.126Z,47.38
2023-04-08T02:48:58.484Z,46.28
2023-04-08T02:51:24.808Z,41.42
2023-04-08T02:53:51.168Z,52.47
2023-04-08T02:56:17.517Z,49.53
2023-04-08T02:58:43.856Z,48.08
2023-04-08T03:01:10.307Z,42.88
2023-04-08T03:03:36.962Z,48.35
2023-04-08T03:06:03.473Z,49.45
2023-04-08T03:08:29.795Z,52.75
2023-04-08T03:10:56.103Z,39.05
2023-04-08T03:13:22.441Z,50.42
2023-04-08T03:15:48.754Z,45.17
2023-04-08T03:18:15.519Z,43.67
2023-04-08T03:20:41.810Z,40.63
2023-04-08T03:23:08.332Z,43.97
2023-04-08T03:25:34.658Z,46.15
2023-04-08T03:28:00.966Z,45.40
2023-04-08T03:30:27.438Z,36.03
2023-04-08T03:32:53.884Z,43.03
2023-04-08T03:35:20.538Z,38.50
2023-04-08T03:37:47.179Z,35.65
2023-04-08T03:40:13.479Z,34.63
2023-04-08T03:42:39.854Z,35.97
2023-04-08T03:45:06.499Z,36.13
2023-04-08T03:47:32.840Z,32.05
2023-04-08T03:49:59.153Z,40.00
2023-04-08T03:52:25.575Z,38.80
2023-04-08T03:54:51.852Z,47.95
2023-04-08T03:57:18.183Z,29.20
2023-04-08T03:59:44.502Z,36.15
2023-04-08T04:02:10.994Z,38.47
2023-04-08T04:04:37.466Z,37.08
2023-04-08T04:07:03.820Z,30.97
2023-04-08T04:09:30.309Z,35.00
2023-04-08T04:11:56.649Z,46.42
2023-04-08T04:14:22.941Z,41.60
2023-04-08T04:16:49.230Z,41.60
2023-04-08T04:19:17.311Z,38.05
2023-04-08T04:21:43.797Z,41.35
2023-04-08T04:24:10.241Z,45.55
2023-04-08T04:26:36.535Z,39.75
2023-04-08T04:29:02.915Z,43.75
2023-04-08T04:31:29.519Z,46.33
2023-04-08T04:33:55.909Z,38.20
2023-04-08T04:36:22.281Z,45.93
2023-04-08T04:38:50.482Z,42.60
2023-04-08T04:41:17.274Z,40.95
2023-04-08T04:43:43.621Z,47.50
2023-04-08T04:46:09.947Z,56.60
2023-04-08T04:48:36.456Z,48.95
2023-04-08T04:51:03.400Z,45.67
2023-04-08T04:53:30.320Z,42.30
2023-04-08T04:55:56.613Z,48.53
2023-04-08T04:58:22.886Z,50.90
2023-04-08T05:00:49.194Z,45.35
2023-04-08T05:03:15.612Z,48.35
2023-04-08T05:05:41.978Z,53.67
2023-04-08T05:08:08.315Z,40.80
2023-04-08T05:10:34.638Z,53.28
2023-04-08T05:13:01.155Z,49.88
2023-04-08T05:15:27.453Z,50.53
2023-04-08T05:17:53.784Z,61.10
2023-04-08T05:20:20.307Z,49.78
2023-04-08T05:22:46.588Z,50.27
2023-04-08T05:25:12.950Z,48.67
2023-04-08T05:27:40.487Z,49.67
2023-04-08T05:30:07.330Z,54.22
2023-04-08T05:32:33.731Z,52.85
2023-04-08T05:35:02.029Z,61.53
2023-04-08T05:37:28.333Z,55.27
2023-04-08T05:39:54.636Z,50.63
2023-04-08T05:42:20.918Z,54.03
2023-04-08T05:44:47.329Z,51.20
2023-04-08T05:47:14.732Z,42.97
2023-04-08T05:49:41.109Z,48.23
2023-04-08T05:52:07.397Z,46.03
2023-04-08T05:54:33.679Z,54.70
2023-04-08T05:56:59.967Z,51.00
2023-04-08T05:59:26.257Z,48.93
2023-04-08T06:01:52.693Z,49.30
2023-04-08T06:04:19.248Z,48.63
2023-04-08T06:06:45.757Z,40.22
2023-04-08T06:09:12.051Z,42.03
2023-04-08T06:11:38.335Z,42.03
2023-04-08T06:14:04.634Z,40.90
2023-04-08T06:16:31.191Z,44.57
2023-04-08T06:18:57.493Z,42.40
2023-04-08T06:21:23.883Z,39.55
2023-04-08T06:23:50.163Z,49.45
2023-04-08T06:26:16.933Z,44.63
2023-04-08T06:28:43.302Z,47.73
2023-04-08T06:31:09.605Z,44.70
2023-04-08T06:33:35.892Z,43.05
2023-04-08T06:36:05.766Z,44.50
2023-04-08T06:38:32.123Z,43.92
2023-04-08T06:41:04.729Z,47.08
2023-04-08T06:43:31.237Z,50.47
2023-04-08T06:45:58.070Z,55.97
2023-04-08T06:48:28.531Z,55.07
2023-04-08T06:50:57.828Z,63.00
2023-04-08T06:53:24.925Z,54.60
2023-04-08T06:55:51.571Z,57.03
2023-04-08T06:58:18.112Z,51.67
2023-04-08T07:00:44.444Z,57.13
2023-04-08T07:03:11.960Z,49.50
2023-04-08T07:05:38.679Z,52.07
2023-04-08T07:08:05.604Z,52.35
2023-04-08T07:10:31.936Z,52.83
2023-04-08T07:12:58.247Z,51.63
2023-04-08T07:15:24.534Z,44.87
2023-04-08T07:17:51.689Z,45.67
2023-04-08T07:20:18.305Z,50.30
2023-04-08T07:22:44.620Z,54.07
2023-04-08T07:25:11.098Z,51.13
2023-04-08T07:27:37.411Z,51.53
2023-04-08T07:30:03.904Z,48.20
2023-04-08T07:32:30.278Z,46.83
2023-04-08T07:34:56.584Z,46.30
2023-04-08T07:37:22.921Z,49.10
2023-04-08T07:39:49.211Z,50.53
2023-04-08T07:42:15.511Z,42.10
2023-04-08T07:44:41.807Z,45.33
2023-04-08T07:47:09.112Z,45.43
2023-04-08T07:49:35.410Z,43.00
2023-04-08T07:52:01.850Z,41.73
2023-04-08T07:54:28.166Z,44.63
2023-04-08T07:56:54.563Z,42.73
2023-04-08T07:59:20.955Z,48.00
2023-04-08T08:01:47.382Z,51.57
2023-04-08T08:04:13.974Z,40.33
2023-04-08T08:06:40.459Z,48.93
2023-04-08T08:09:06.776Z,45.03
2023-04-08T08:11:33.337Z,38.33
2023-04-08T08:13:59.625Z,41.40
2023-04-08T08:16:29.334Z,42.43
2023-04-08T08:18:55.820Z,71.17
2023-04-08T08:21:22.595Z,53.03
2023-04-08T08:23:49.057Z,53.53
2023-04-08T08:26:15.831Z,56.87
2023-04-08T08:28:42.165Z,63.45
2023-04-08T08:31:08.598Z,36.97
2023-04-08T08:33:35.423Z,45.50
2023-04-08T08:36:01.818Z,35.00
2023-04-08T08:38:28.186Z,32.30
2023-04-08T08:40:56.232Z,41.57
2023-04-08T08:43:23.028Z,38.77
2023-04-08T08:45:49.367Z,50.33
2023-04-08T08:48:15.793Z,49.10
2023-04-08T08:50:42.100Z,42.47
2023-04-08T08:53:08.426Z,39.47
2023-04-08T08:55:53.092Z,36.53
2023-04-08T08:58:21.020Z,35.50
2023-04-08T09:00:47.395Z,33.37
2023-04-08T09:03:15.259Z,37.63
2023-04-08T09:05:51.835Z,39.53
2023-04-08T09:08:34.671Z,32.33
2023-04-08T09:11:11.682Z,36.67
2023-04-08T09:13:38.390Z,50.27
2023-04-08T09:16:05.692Z,61.50
2023-04-08T09:18:32.709Z,70.07
2023-04-08T09:21:05.313Z,65.38
2023-04-08T09:23:41.825Z,98.97
2023-04-08T09:26:11.019Z,86.90
2023-04-08T09:28:37.749Z,53.63
2023-04-08T09:31:18.952Z,52.33
2023-04-08T09:33:45.363Z,93.85
2023-04-08T09:36:11.899Z,72.53
2023-04-08T09:38:38.314Z,43.17
2023-04-08T09:41:06.965Z,86.13
2023-04-08T09:43:36.486Z,81.17
2023-04-08T09:46:06.026Z,106.78
2023-04-08T09:48:39.784Z,85.32
2023-04-08T09:51:06.517Z,74.57
2023-04-08T09:53:37.880Z,79.03
2023-04-08T09:56:07.638Z,102.75
2023-04-08T09:58:38.718Z,41.60
2023-04-08T10:01:05.499Z,74.38
2023-04-08T10:03:45.355Z,71.63
2023-04-08T10:06:12.046Z,88.85
2023-04-08T10:08:38.514Z,79.72
2023-04-08T10:11:04.913Z,63.80
2023-04-08T10:13:32.639Z,81.70
2023-04-08T10:16:18.008Z,88.47
2023-04-08T10:18:45.325Z,100.63
2023-04-08T10:21:31.118Z,89.53
2023-04-08T10:23:59.841Z,72.22
2023-04-08T10:26:36.462Z,83.82
2023-04-08T10:29:32.200Z,107.20
2023-04-08T10:31:58.816Z,112.45
2023-04-08T10:34:26.813Z,95.57
2023-04-08T10:36:54.331Z,86.20
2023-04-08T10:39:21.385Z,93.90
2023-04-08T10:41:48.938Z,80.97
2023-04-08T10:44:35.485Z,92.35
2023-04-08T10:47:01.872Z,79.03
2023-04-08T10:49:37.893Z,62.35
2023-04-08T10:52:07.787Z,83.63
2023-04-08T10:54:34.100Z,49.67
2023-04-08T10:57:01.398Z,34.60
2023-04-08T10:59:28.698Z,52.97
2023-04-08T11:01:55.442Z,56.00
2023-04-08T11:04:23.660Z,40.47
2023-04-08T11:06:50.187Z,46.70
2023-04-08T11:09:16.585Z,31.25
2023-04-08T11:11:44.076Z,29.95
2023-04-08T11:14:10.729Z,26.40
2023-04-08T11:16:37.780Z,29.95
2023-04-08T11:19:07.766Z,25.63
2023-04-08T11:21:37.486Z,29.35
2023-04-08T11:24:07.831Z,29.90
2023-04-08T11:26:34.465Z,27.33
2023-04-08T11:29:01.082Z,24.80
2023-04-08T11:31:27.763Z,28.67
2023-04-08T11:33:55.381Z,22.75
2023-04-08T11:36:21.903Z,27.33
2023-04-08T11:38:48.338Z,24.50
2023-04-08T11:41:14.859Z,26.25
2023-04-08T11:43:51.176Z,24.80
2023-04-08T11:46:17.701Z,26.55
2023-04-08T11:48:56.966Z,22.45
2023-04-08T11:51:23.912Z,27.83
2023-04-08T11:53:52.691Z,21.15
2023-04-08T11:56:22.457Z,22.40
2023-04-08T11:58:49.148Z,23.58
2023-04-08T12:01:15.911Z,24.73
2023-04-08T12:03:56.172Z,24.85
2023-04-08T12:06:23.417Z,23.42
2023-04-08T12:08:49.852Z,22.92
2023-04-08T12:11:19.935Z,19.50
2023-04-08T12:13:46.629Z,21.48
2023-04-08T12:16:14.216Z,20.05
2023-04-08T12:18:40.801Z,20.40
2023-04-08T12:21:07.121Z,19.42
2023-04-08T12:23:33.396Z,22.35
2023-04-08T12:25:59.709Z,20.10
2023-04-08T12:28:26.199Z,17.75
2023-04-08T12:30:52.576Z,21.33
2023-04-08T12:33:18.945Z,18.17
2023-04-08T12:35:45.354Z,21.45
2023-04-08T12:38:11.651Z,21.85
2023-04-08T12:40:38.230Z,17.10
2023-04-08T12:43:04.518Z,18.45
2023-04-08T12:45:30.870Z,17.95
2023-04-08T12:47:57.283Z,16.33
2023-04-08T12:50:23.627Z,16.58
2023-04-08T12:52:50.040Z,20.83
2023-04-08T12:55:16.345Z,19.52
2023-04-08T12:57:42.712Z,16.85
2023-04-08T13:00:09.450Z,18.02
2023-04-08T13:02:35.874Z,19.20
2023-04-08T13:05:02.462Z,20.50
2023-04-08T13:07:28.765Z,18.67
2023-04-08T13:09:55.312Z,20.40
2023-04-08T13:12:21.600Z,18.95
2023-04-08T13:14:47.906Z,18.98
2023-04-08T13:17:14.197Z,18.63
2023-04-08T13:19:40.567Z,21.83
2023-04-08T13:22:06.986Z,20.15
2023-04-08T13:24:33.649Z,18.33
2023-04-08T13:26:59.956Z,16.85
2023-04-08T13:29:26.258Z,18.63
2023-04-08T13:31:53.453Z,16.52
2023-04-08T13:34:19.886Z,19.17
2023-04-08T13:36:46.185Z,23.77
2023-04-08T13:39:12.815Z,21.80
2023-04-08T13:41:39.104Z,23.55
2023-04-08T13:44:05.680Z,17.83
2023-04-08T13:46:32.032Z,19.08
2023-04-08T13:48:58.377Z,18.10
2023-04-08T13:51:24.742Z,18.77
2023-04-08T13:53:51.164Z,18.23
2023-04-08T13:56:17.445Z,17.05
2023-04-08T13:58:44.790Z,18.73
2023-04-08T14:01:14.033Z,17.80
2023-04-08T14:03:40.817Z,21.33
2023-04-08T14:06:07.143Z,14.45
2023-04-08T14:08:33.461Z,20.05
2023-04-08T14:10:59.880Z,16.13
2023-04-08T14:13:26.470Z,16.02
2023-04-08T14:15:56.158Z,18.02
2023-04-08T14:18:22.441Z,16.27
2023-04-08T14:20:48.727Z,14.65
2023-04-08T14:23:16.826Z,16.10
2023-04-08T14:25:43.128Z,17.67
2023-04-08T14:28:09.428Z,19.90
2023-04-08T14:30:37.757Z,18.92
2023-04-08T14:33:05.308Z,19.42
2023-04-08T14:35:31.785Z,13.80
2023-04-08T14:37:58.404Z,12.82
2023-04-08T14:40:24.692Z,12.77
2023-04-08T14:42:51.536Z,16.02
2023-04-08T14:45:17.835Z,11.00
2023-04-08T14:47:44.167Z,12.38
2023-04-08T14:50:10.752Z,15.20
2023-04-08T14:52:37.052Z,14.10
2023-04-08T14:55:03.487Z,16.25
2023-04-08T14:57:29.807Z,18.25
2023-04-08T14:59:56.454Z,13.52
2023-04-08T15:02:22.823Z,12.65
2023-04-08T15:04:49.151Z,13.05
2023-04-08T15:07:15.748Z,14.50
2023-04-08T15:09:42.568Z,13.07
2023-04-08T15:12:08.872Z,15.10
2023-04-08T15:14:35.205Z,15.68
2023-04-08T15:17:01.501Z,15.68
2023-04-08T15:19:27.793Z,17.05
2023-04-08T15:21:54.092Z,13.55
2023-04-08T15:24:20.605Z,15.95
2023-04-08T15:26:46.903Z,15.68
2023-04-08T15:29:13.409Z,15.07
2023-04-08T15:31:41.389Z,13.43
2023-04-08T15:34:07.749Z,12.73
2023-04-08T15:36:35.952Z,18.17
2023-04-08T15:39:02.348Z,10.90
2023-04-08T15:41:28.772Z,15.90
2023-04-08T15:43:55.643Z,15.35
2023-04-08T15:46:21.975Z,11.05
2023-04-08T15:48:48.601Z,15.93
2023-04-08T15:51:15.420Z,15.40
2023-04-08T15:53:41.991Z,11.48
2023-04-08T15:56:18.015Z,14.13
2023-04-08T15:58:45.090Z,14.38
2023-04-08T16:01:12.265Z,11.50
2023-04-08T16:03:39.081Z,15.02
2023-04-08T16:06:08.468Z,11.00
2023-04-08T16:08:34.962Z,13.88
2023-04-08T16:11:02.553Z,15.63
2023-04-08T16:13:31.981Z,14.30
2023-04-08T16:15:58.774Z,11.45
2023-04-08T16:18:25.898Z,13.40
2023-04-08T16:20:52.773Z,16.00
2023-04-08T16:23:19.094Z,13.38
2023-04-08T16:25:45.474Z,14.02
2023-04-08T16:28:12.101Z,11.65
2023-04-08T16:30:38.796Z,15.18
2023-04-08T16:33:06.039Z,13.80
2023-04-08T16:35:32.539Z,11.48
2023-04-08T16:37:58.907Z,11.48
2023-04-08T16:40:25.419Z,12.10
2023-04-08T16:42:52.265Z,10.50
2023-04-08T16:45:18.871Z,13.63
2023-04-08T16:47:45.936Z,13.48
2023-04-08T16:50:12.308Z,12.07
2023-04-08T16:52:38.699Z,19.73
2023-04-08T16:55:05.191Z,12.73
2023-04-08T16:57:31.486Z,12.32
2023-04-08T16:59:57.854Z,14.20
2023-04-08T17:02:24.335Z,11.32
2023-04-08T17:04:51.387Z,10.75
2023-04-08T17:07:17.700Z,14.50
2023-04-08T17:09:44.367Z,10.98
2023-04-08T17:12:10.934Z,12.20
2023-04-08T17:14:37.240Z,11.23
2023-04-08T17:17:03.530Z,14.82
2023-04-08T17:19:29.845Z,11.75
2023-04-08T17:21:56.549Z,9.07
2023-04-08T17:24:22.867Z,11.57
2023-04-08T17:26:49.341Z,9.30
2023-04-08T17:29:15.634Z,11.93
2023-04-08T17:31:42.102Z,13.00
2023-04-08T17:34:08.464Z,9.32
2023-04-08T17:36:34.752Z,12.68
2023-04-08T17:39:01.286Z,14.18
2023-04-08T17:41:38.840Z,13.02
2023-04-08T17:44:06.058Z,12.52
2023-04-08T17:48:59.208Z,11.75
2023-04-08T17:51:26.217Z,11.15
2023-04-08T17:53:52.785Z,12.52
2023-04-08T17:56:19.313Z,14.68
2023-04-08T17:58:48.150Z,15.95
2023-04-08T18:01:15.322Z,13.13
2023-04-08T18:03:42.263Z,11.60
2023-04-08T18:06:09.043Z,15.98
2023-04-08T18:08:35.742Z,16.40
2023-04-08T18:11:05.734Z,16.60
2023-04-08T18:13:32.188Z,14.40
2023-04-08T18:15:58.624Z,14.90
2023-04-08T18:18:25.034Z,16.63
2023-04-08T18:20:51.393Z,14.65
2023-04-08T18:23:17.740Z,15.25
2023-04-08T18:25:47.241Z,17.10
2023-04-08T18:28:13.525Z,16.25
2023-04-08T18:30:39.905Z,14.50
2023-04-08T18:33:06.723Z,16.00
2023-04-08T18:35:33.068Z,19.50
2023-04-08T18:37:59.396Z,23.25
2023-04-08T18:40:25.699Z,24.40
2023-04-08T18:42:51.985Z,13.10
2023-04-08T18:45:18.564Z,12.73
2023-04-08T18:47:44.956Z,12.25
2023-04-08T18:50:11.284Z,11.30
2023-04-08T18:52:38.835Z,14.25
2023-04-08T18:55:05.401Z,15.68
2023-04-08T18:57:31.697Z,13.63
2023-04-08T18:59:58.042Z,17.35
2023-04-08T19:02:24.538Z,17.58
2023-04-08T19:04:51.998Z,12.45
2023-04-08T19:07:18.398Z,13.98
2023-04-08T19:09:44.720Z,20.35
2023-04-08T19:12:11.099Z,11.88
2023-04-08T19:14:37.419Z,14.02
2023-04-08T19:17:03.803Z,15.52
2023-04-08T19:19:30.151Z,13.07
2023-04-08T19:21:56.458Z,13.35
2023-04-08T19:24:22.828Z,11.68
2023-04-08T19:26:50.704Z,13.75
2023-04-08T19:29:19.436Z,13.73
2023-04-08T19:31:45.925Z,15.85
2023-04-08T19:34:12.496Z,15.43
2023-04-08T19:36:38.775Z,16.20
2023-04-08T19:39:05.854Z,14.10
2023-04-08T19:41:32.165Z,16.15
2023-04-08T19:43:58.452Z,13.13
2023-04-08T19:46:24.796Z,13.63
2023-04-08T19:48:51.273Z,13.85
2023-04-08T19:51:20.207Z,15.30
2023-04-08T19:53:46.888Z,11.48
2023-04-08T19:56:13.536Z,15.40
2023-04-08T19:58:39.842Z,11.82
2023-04-08T20:01:07.366Z,12.82
2023-04-08T20:03:33.854Z,18.67
2023-04-08T20:06:00.860Z,12.65
2023-04-08T20:08:27.196Z,13.88
2023-04-08T20:10:53.949Z,11.85
2023-04-08T20:13:20.698Z,15.30
2023-04-08T20:15:47.017Z,13.80
2023-04-08T20:18:15.284Z,12.98
2023-04-08T20:20:42.915Z,13.82
2023-04-08T20:23:09.234Z,11.80
2023-04-08T20:25:35.652Z,12.32
2023-04-08T20:28:01.979Z,16.10
2023-04-08T20:30:28.531Z,19.30
2023-04-08T20:32:54.869Z,14.38
2023-04-08T20:35:22.085Z,14.10
2023-04-08T20:37:48.541Z,12.13
2023-04-08T20:40:17.670Z,10.77
2023-04-08T20:42:44.582Z,16.33
2023-04-08T20:45:11.722Z,14.20
2023-04-08T20:47:38.585Z,14.35
2023-04-08T20:50:05.526Z,19.25
2023-04-08T20:52:31.884Z,20.00
2023-04-08T20:54:58.324Z,15.85
2023-04-08T20:57:24.670Z,18.98
2023-04-08T20:59:51.287Z,18.00
2023-04-08T21:02:18.096Z,19.52
2023-04-08T21:04:44.479Z,16.08
2023-04-08T21:07:10.808Z,19.80
2023-04-08T21:09:37.093Z,20.77
2023-04-08T21:12:04.276Z,15.95
2023-04-08T21:14:34.738Z,19.10
2023-04-08T21:17:01.081Z,19.08
2023-04-08T21:19:27.411Z,22.08
2023-04-08T21:21:53.727Z,23.85
2023-04-08T21:24:20.023Z,23.55
2023-04-08T21:26:46.673Z,18.92
2023-04-08T21:29:12.954Z,23.77
2023-04-08T21:31:41.020Z,21.70
2023-04-08T21:34:07.646Z,20.58
2023-04-08T21:36:33.946Z,19.13
2023-04-08T21:39:00.458Z,25.10
2023-04-08T21:41:28.989Z,21.00
2023-04-08T21:43:57.114Z,24.10
2023-04-08T21:46:23.604Z,25.20
2023-04-08T21:48:50.249Z,27.75
2023-04-08T21:51:17.258Z,25.70
2023-04-08T21:53:43.839Z,24.17
2023-04-08T21:56:10.505Z,27.95
2023-04-08T21:58:36.822Z,25.13
2023-04-08T22:01:04.164Z,25.00
2023-04-08T22:03:30.503Z,23.33
2023-04-08T22:05:56.830Z,25.65
2023-04-08T22:08:23.145Z,30.65
2023-04-08T22:10:49.437Z,31.08
2023-04-08T22:13:18.696Z,29.30
2023-04-08T22:15:44.993Z,24.75
2023-04-08T22:18:11.725Z,28.35
2023-04-08T22:20:38.507Z,28.05
2023-04-08T22:23:04.868Z,29.52
2023-04-08T22:25:31.147Z,29.23
2023-04-08T22:27:57.563Z,32.67
2023-04-08T22:30:23.844Z,30.58
2023-04-08T22:32:50.589Z,28.67
2023-04-08T22:35:16.973Z,32.33
2023-04-08T22:37:43.272Z,24.70
2023-04-08T22:40:09.712Z,22.73
2023-04-08T22:42:36.058Z,26.30
2023-04-08T22:45:02.362Z,28.92
2023-04-08T22:47:28.683Z,29.30
2023-04-08T22:49:55.400Z,22.60
2023-04-08T22:52:21.715Z,25.02
2023-04-08T22:54:48.031Z,25.80
2023-04-08T22:57:14.350Z,28.45
2023-04-08T22:59:40.653Z,30.38
2023-04-08T23:02:07.041Z,28.67
2023-04-08T23:04:33.395Z,25.13
2023-04-08T23:06:59.722Z,34.47
2023-04-08T23:09:27.116Z,28.92
2023-04-08T23:11:53.409Z,27.52
2023-04-08T23:14:19.682Z,28.05
2023-04-08T23:16:45.975Z,25.95
2023-04-08T23:19:12.394Z,27.52
2023-04-08T23:21:38.730Z,24.15
2023-04-08T23:24:05.368Z,23.00
2023-04-08T23:26:31.663Z,28.85
2023-04-08T23:28:58.168Z,27.50
2023-04-08T23:31:24.552Z,28.05
2023-04-08T23:33:50.898Z,28.05
2023-04-08T23:36:17.233Z,30.70
2023-04-08T23:38:43.532Z,26.27
2023-04-08T23:41:09.816Z,27.33
2023-04-08T23:43:36.603Z,26.65
2023-04-08T23:46:03.022Z,26.20
2023-04-08T23:48:29.357Z,25.95
2023-04-08T23:50:55.921Z,27.90
2023-04-08T23:53:22.257Z,26.58
2023-04-08T23:55:48.614Z,30.15
2023-04-08T23:58:14.912Z,28.50
